Language selection

My Weather Profile Weather Topics  | 

Central Coast from McInnes Island to Pine Island: Past 24 Hour Conditions

 

Bonilla Island

10:00 AM PDT 27 September 2021
Disclaimer

This table is a summary of hourly weather conditions for the past 24 hours.
Please note that these observations might not always be representative of weather conditions over their associated marine area.

Date / Time
(PDT)
Wind(knots) Conditions Visibility(km) Pressure(kPa) Air tempC) Relative humidity(%) Dew pointC)
27 September 2021
10:00 SE 24 gust 35 N/A N/A 98.9 12 89 10
9:00 SE 31 gust 45 N/A N/A 98.8 12 89 10
8:00 SE 21 gust 29 N/A N/A 98.8 11 92 10
7:00 SE 25 gust 34 N/A N/A 98.7 11 92 10
6:00 ESE 13 gust 22 N/A N/A 98.7 12 91 10
5:00 ESE 10 gust 18 N/A N/A 98.8 11 91 10
4:00 ESE 10 gust 17 N/A N/A 98.8 11 90 10
3:00 SE 17 gust 28 N/A N/A 98.8 12 89 10
2:00 SE 18 gust 30 N/A N/A 98.8 12 92 11
1:00 SSW 19 gust 31 N/A N/A 98.8 11 89 9
0:00 ENE 3 N/A N/A 98.7 10 95 10
26 September 2021
23:00 NE 3 N/A N/A 98.7 11 94 9
22:00 ESE 10 gust 19 N/A N/A 98.9 11 91 10
21:00 ESE 18 gust 30 N/A N/A 98.9 12 88 10
20:00 SE 16 gust 30 N/A N/A 99.0 12 88 10
19:00 SE 26 gust 32 N/A N/A 99.1 12 89 11
18:00 SE 23 gust 33 N/A N/A 99.2 12 92 11
17:00 SE 19 gust 35 N/A N/A 99.3 12 93 11
16:00 ESE 15 gust 23 N/A N/A 99.3 12 93 11
15:00 ESE 9 gust 21 N/A N/A 99.5 11 92 10
14:00 ESE 18 gust 32 N/A N/A 99.6 12 83 9
13:00 SE 19 gust 30 N/A N/A 99.7 12 84 9
12:00 SE 16 gust 26 N/A N/A 99.7 12 80 8
11:00 SE 16 N/A N/A 99.8 11 78 8
10:00 SE 11 N/A N/A 99.8 11 79 8

Zoom-in to make a selection

Map of Pacific - North Coast marine weather areas Middle Nomad - 46004 South Nomad - 46036 Dixon Entrance Central - 46145 South Moresby - 46147 Nanakwa Shoal - 46181 North Hecate Strait - 46183 North Nomad - 46184 South Hecate Strait - 46185 West Sea Otter - 46204 West Dixon Entrance - 46205 East Dellwood - 46207 West Moresby - 46208 Sartine Island Cape St.James Kindakun Rocks Langara Island Masset Municipal Airport Rose Spit Sandspit Airport Bella Bella Airport Bella Coola Airport Bonilla Island Cathedral Point Cumshewa Island Grey Islet Holland Rock Lucy Islands Lightstation Prince Rupert Airport
Legend:
buoy Buoy
land station Land Station

Pacific - North Coast Area

Another Region

What we are doing

Date modified: